createdAt,value
2022-10-15T00:01:52.113Z,14.49
2022-10-15T00:04:20.905Z,14.51
2022-10-15T00:06:49.255Z,14.49
2022-10-15T00:09:18.259Z,14.45
2022-10-15T00:11:46.876Z,14.41
2022-10-15T00:14:16.122Z,14.41
2022-10-15T00:16:46.183Z,14.34
2022-10-15T00:19:14.642Z,14.34
2022-10-15T00:21:43.794Z,14.35
2022-10-15T00:24:12.124Z,14.36
2022-10-15T00:26:41.291Z,14.33
2022-10-15T00:29:09.783Z,14.33
2022-10-15T00:31:38.980Z,14.31
2022-10-15T00:34:09.651Z,14.29
2022-10-15T00:36:38.482Z,14.25
2022-10-15T00:39:08.256Z,14.24
2022-10-15T00:41:39.134Z,14.26
2022-10-15T00:44:41.164Z,14.26
2022-10-15T00:47:18.177Z,14.25
2022-10-15T00:49:52.671Z,14.27
2022-10-15T00:52:26.601Z,14.25
2022-10-15T00:55:01.262Z,14.23
2022-10-15T00:57:32.076Z,14.17
2022-10-15T01:00:08.154Z,14.19
2022-10-15T01:02:36.747Z,14.17
2022-10-15T01:05:08.525Z,14.17
2022-10-15T01:07:36.868Z,14.17
2022-10-15T01:10:07.203Z,14.16
2022-10-15T01:12:50.427Z,14.21
2022-10-15T01:15:24.086Z,14.14
2022-10-15T01:17:58.084Z,14.17
2022-10-15T01:20:52.633Z,14.12
2022-10-15T01:23:36.771Z,14.15
2022-10-15T01:26:36.529Z,14.13
2022-10-15T01:29:21.614Z,14.09
2022-10-15T01:31:59.909Z,14.08
2022-10-15T01:34:38.556Z,14.07
2022-10-15T01:37:12.704Z,14.08
2022-10-15T01:39:46.540Z,13.96
2022-10-15T01:42:20.112Z,13.98
2022-10-15T01:44:54.837Z,14.00
2022-10-15T01:47:45.112Z,13.99
2022-10-15T01:50:17.357Z,14.00
2022-10-15T01:52:46.644Z,14.00
2022-10-15T01:55:17.771Z,13.99
2022-10-15T01:57:47.315Z,13.96
2022-10-15T02:00:17.537Z,13.92
2022-10-15T02:02:47.850Z,13.85
2022-10-15T02:05:23.120Z,13.85
2022-10-15T02:08:01.794Z,13.89
2022-10-15T02:10:43.252Z,13.90
2022-10-15T02:13:20.157Z,13.86
2022-10-15T02:15:58.915Z,13.83
2022-10-15T02:18:37.136Z,13.82
2022-10-15T02:21:11.658Z,13.79
2022-10-15T02:23:46.328Z,13.83
2022-10-15T02:26:16.953Z,13.79
2022-10-15T02:28:53.928Z,13.82
2022-10-15T02:31:24.265Z,13.77
2022-10-15T02:33:59.598Z,13.77
2022-10-15T02:36:28.611Z,13.79
2022-10-15T02:38:59.307Z,13.82
2022-10-15T02:41:29.862Z,13.77
2022-10-15T02:43:58.415Z,13.75
2022-10-15T02:46:27.958Z,13.74
2022-10-15T02:48:58.070Z,13.74
2022-10-15T02:51:27.608Z,13.80
2022-10-15T02:53:56.126Z,13.81
2022-10-15T02:56:26.642Z,13.78
2022-10-15T02:58:55.559Z,13.81
2022-10-15T03:01:24.739Z,13.80
2022-10-15T03:03:53.296Z,13.84
2022-10-15T03:06:24.086Z,13.87
2022-10-15T03:08:53.022Z,13.86
2022-10-15T03:11:24.670Z,13.83
2022-10-15T03:13:53.702Z,13.85
2022-10-15T03:16:22.854Z,13.83
2022-10-15T03:18:52.127Z,13.87
2022-10-15T03:21:21.293Z,13.91
2022-10-15T03:23:51.079Z,13.90
2022-10-15T03:26:24.017Z,13.91
2022-10-15T03:28:52.805Z,13.98
2022-10-15T03:31:34.186Z,13.96
2022-10-15T03:34:05.478Z,13.91
2022-10-15T03:36:34.056Z,13.92
2022-10-15T03:39:06.281Z,14.01
2022-10-15T03:41:34.776Z,13.96
2022-10-15T03:44:05.021Z,14.02
2022-10-15T03:46:33.970Z,13.97
2022-10-15T03:49:03.348Z,13.96
2022-10-15T03:51:31.929Z,14.01
2022-10-15T03:54:08.896Z,14.06
2022-10-15T03:56:44.610Z,14.05
2022-10-15T03:59:31.160Z,13.96
2022-10-15T04:02:02.706Z,13.96
2022-10-15T04:04:33.068Z,13.99
2022-10-15T04:07:01.900Z,14.00
2022-10-15T04:09:33.804Z,14.00
2022-10-15T04:12:22.884Z,13.99
2022-10-15T04:14:51.538Z,13.95
2022-10-15T04:17:19.951Z,13.98
2022-10-15T04:19:50.343Z,14.00
2022-10-15T04:22:19.904Z,13.98
2022-10-15T04:24:54.574Z,14.00
2022-10-15T04:27:30.068Z,14.01
2022-10-15T04:30:11.295Z,14.01
2022-10-15T04:32:44.006Z,14.03
2022-10-15T04:35:13.116Z,14.03
2022-10-15T04:37:53.522Z,14.02
2022-10-15T04:40:23.606Z,14.09
2022-10-15T04:42:52.808Z,14.15
2022-10-15T04:45:21.743Z,14.15
2022-10-15T04:47:50.362Z,14.19
2022-10-15T04:50:20.192Z,14.25
2022-10-15T04:53:06.917Z,14.23
2022-10-15T04:55:40.502Z,14.27
2022-10-15T04:58:09.331Z,14.24
2022-10-15T05:00:39.324Z,14.27
2022-10-15T05:06:08.974Z,14.17
2022-10-15T05:08:42.352Z,14.13
2022-10-15T05:11:21.901Z,14.20
2022-10-15T05:13:51.468Z,14.22
2022-10-15T05:16:21.749Z,14.24
2022-10-15T05:18:51.666Z,14.24
2022-10-15T05:21:21.178Z,14.20
2022-10-15T05:23:53.210Z,14.24
2022-10-15T05:26:42.798Z,14.26
2022-10-15T05:29:11.511Z,14.31
2022-10-15T05:31:40.306Z,14.39
2022-10-15T05:34:15.928Z,14.42
2022-10-15T05:36:51.897Z,14.42
2022-10-15T05:39:20.387Z,14.42
2022-10-15T05:41:50.414Z,14.39
2022-10-15T05:44:21.919Z,14.44
2022-10-15T05:46:51.875Z,14.48
2022-10-15T05:49:24.752Z,14.51
2022-10-15T05:52:03.190Z,14.57
2022-10-15T05:54:55.486Z,14.59
2022-10-15T05:57:25.241Z,14.59
2022-10-15T05:59:54.218Z,14.63
2022-10-15T06:02:23.069Z,14.69
2022-10-15T06:04:53.394Z,14.75
2022-10-15T06:07:22.836Z,14.75
2022-10-15T06:09:51.737Z,14.81
2022-10-15T06:12:20.981Z,14.87
2022-10-15T06:14:50.748Z,14.88
2022-10-15T06:17:20.070Z,14.92
2022-10-15T06:19:53.119Z,14.99
2022-10-15T06:22:21.490Z,14.96
2022-10-15T06:24:50.612Z,15.01
2022-10-15T06:27:19.015Z,15.04
2022-10-15T06:29:47.997Z,15.06
2022-10-15T06:32:18.379Z,15.12
2022-10-15T06:34:46.721Z,15.15
2022-10-15T06:37:15.670Z,15.17
2022-10-15T06:39:44.011Z,15.20
2022-10-15T06:42:12.763Z,15.21
2022-10-15T06:44:42.390Z,15.27
2022-10-15T06:47:11.728Z,15.27
2022-10-15T06:49:41.508Z,15.31
2022-10-15T06:52:10.215Z,15.33
2022-10-15T06:54:38.922Z,15.38
2022-10-15T06:57:09.705Z,15.41
2022-10-15T06:59:41.191Z,15.41
2022-10-15T07:02:10.643Z,15.42
2022-10-15T07:04:40.026Z,15.46
2022-10-15T07:07:09.819Z,15.52
2022-10-15T07:09:38.161Z,15.53
2022-10-15T07:12:07.522Z,15.52
2022-10-15T07:14:40.077Z,15.59
2022-10-15T07:17:10.717Z,15.59
2022-10-15T07:19:39.566Z,15.62
2022-10-15T07:22:09.567Z,15.66
2022-10-15T07:24:37.944Z,15.70
2022-10-15T07:27:08.289Z,15.69
2022-10-15T07:29:47.244Z,15.66
2022-10-15T07:32:15.802Z,15.74
2022-10-15T07:34:44.201Z,15.78
2022-10-15T07:37:14.676Z,15.83
2022-10-15T07:39:43.531Z,15.84
2022-10-15T07:44:41.559Z,15.91
2022-10-15T07:47:12.102Z,15.96
2022-10-15T07:49:40.940Z,16.03
2022-10-15T07:52:09.485Z,16.06
2022-10-15T07:54:39.223Z,16.05
2022-10-15T07:57:08.433Z,16.06
2022-10-15T07:59:36.964Z,16.04
2022-10-15T08:02:06.515Z,16.10
2022-10-15T08:04:35.528Z,16.11
2022-10-15T08:07:06.793Z,16.13
2022-10-15T08:09:39.273Z,16.15
2022-10-15T08:12:08.315Z,16.17
2022-10-15T08:14:39.087Z,16.21
2022-10-15T08:17:07.779Z,16.21
2022-10-15T08:19:36.374Z,16.27
2022-10-15T08:22:05.594Z,16.31
2022-10-15T08:24:34.364Z,16.36
2022-10-15T08:27:04.163Z,16.36
2022-10-15T08:29:33.153Z,16.38
2022-10-15T08:32:01.891Z,16.43
2022-10-15T08:34:32.195Z,16.46
2022-10-15T08:37:01.427Z,16.42
2022-10-15T08:39:29.879Z,16.44
2022-10-15T08:42:02.931Z,16.45
2022-10-15T08:44:42.621Z,16.45
2022-10-15T08:47:20.123Z,16.41
2022-10-15T08:49:51.805Z,16.45
2022-10-15T08:52:26.313Z,16.44
2022-10-15T08:54:57.141Z,16.48
2022-10-15T08:57:39.961Z,16.52
2022-10-15T09:00:17.058Z,16.44
2022-10-15T09:02:54.057Z,16.49
2022-10-15T09:05:35.435Z,16.52
2022-10-15T09:08:13.512Z,16.51
2022-10-15T09:10:47.995Z,16.53
2022-10-15T09:13:27.234Z,16.59
2022-10-15T09:16:01.489Z,16.59
2022-10-15T09:18:34.842Z,16.65
2022-10-15T09:21:05.464Z,16.72
2022-10-15T09:23:34.999Z,16.78
2022-10-15T09:26:08.751Z,16.86
2022-10-15T09:28:44.300Z,16.92
2022-10-15T09:31:17.733Z,16.98
2022-10-15T09:33:51.684Z,17.06
2022-10-15T09:36:38.307Z,17.02
2022-10-15T09:39:27.723Z,17.14
2022-10-15T09:42:10.170Z,17.14
2022-10-15T09:44:43.103Z,17.15
2022-10-15T09:47:25.089Z,17.14
2022-10-15T09:49:59.949Z,17.12
2022-10-15T09:52:44.985Z,17.17
2022-10-15T09:55:29.051Z,17.14
2022-10-15T09:58:00.239Z,17.17
2022-10-15T10:00:57.626Z,17.26
2022-10-15T10:03:28.202Z,17.28
2022-10-15T10:06:03.286Z,17.33
2022-10-15T10:08:41.398Z,17.43
2022-10-15T10:11:13.273Z,17.52
2022-10-15T10:13:46.092Z,17.63
2022-10-15T10:16:18.460Z,17.72
2022-10-15T10:19:03.801Z,17.86
2022-10-15T10:21:34.717Z,18.02
2022-10-15T10:24:23.767Z,18.15
2022-10-15T10:26:52.199Z,18.29
2022-10-15T10:29:33.693Z,18.37
2022-10-15T10:32:13.790Z,18.40
2022-10-15T10:34:48.715Z,18.49
2022-10-15T10:37:21.286Z,18.84
2022-10-15T10:39:54.653Z,18.97
2022-10-15T10:42:32.951Z,19.15
2022-10-15T10:45:23.885Z,19.36
2022-10-15T10:47:53.689Z,19.44
2022-10-15T10:50:30.377Z,19.46
2022-10-15T10:53:00.172Z,19.39
2022-10-15T10:55:38.890Z,19.73
2022-10-15T10:58:16.209Z,20.07
2022-10-15T11:00:47.267Z,20.35
2022-10-15T11:03:24.442Z,20.55
2022-10-15T11:06:09.686Z,20.47
2022-10-15T11:08:47.318Z,20.66
2022-10-15T11:11:23.483Z,20.90
2022-10-15T11:14:02.696Z,20.85
2022-10-15T11:16:39.134Z,20.64
2022-10-15T11:19:50.415Z,20.55
2022-10-15T11:22:37.765Z,20.38
2022-10-15T11:25:16.443Z,20.24
2022-10-15T11:27:57.266Z,20.10
2022-10-15T11:30:40.412Z,20.01
2022-10-15T11:33:24.347Z,19.96
2022-10-15T11:36:10.199Z,19.83
2022-10-15T11:38:46.833Z,19.72
2022-10-15T11:41:34.130Z,19.74
2022-10-15T11:44:21.145Z,19.70
2022-10-15T11:47:01.572Z,19.75
2022-10-15T11:49:43.179Z,19.78
2022-10-15T11:52:35.808Z,19.68
2022-10-15T11:55:13.268Z,19.45
2022-10-15T11:57:44.371Z,19.29
2022-10-15T12:00:27.647Z,19.37
2022-10-15T12:02:58.955Z,19.47
2022-10-15T12:05:33.404Z,19.50
2022-10-15T12:10:58.398Z,19.36
2022-10-15T12:13:35.276Z,19.26
2022-10-15T12:16:14.988Z,19.21
2022-10-15T12:18:51.355Z,19.17
2022-10-15T12:21:35.372Z,19.21
2022-10-15T12:24:10.800Z,19.23
2022-10-15T12:26:39.345Z,19.17
2022-10-15T12:29:21.661Z,19.27
2022-10-15T12:31:52.004Z,19.34
2022-10-15T12:34:31.631Z,19.37
2022-10-15T12:37:06.041Z,19.26
2022-10-15T12:39:54.271Z,19.21
2022-10-15T12:42:30.727Z,19.14
2022-10-15T12:45:03.096Z,19.06
2022-10-15T12:47:48.934Z,19.06
2022-10-15T12:50:23.309Z,19.00
2022-10-15T12:53:00.832Z,18.97
2022-10-15T12:55:34.119Z,18.99
2022-10-15T12:58:06.143Z,19.01
2022-10-15T13:00:45.615Z,19.16
2022-10-15T13:03:35.537Z,19.50
2022-10-15T13:06:27.751Z,20.15
2022-10-15T13:09:07.073Z,20.23
2022-10-15T13:11:42.849Z,20.10
2022-10-15T13:14:21.431Z,20.01
2022-10-15T13:16:50.951Z,19.91
2022-10-15T13:19:20.833Z,19.93
2022-10-15T13:21:57.422Z,20.19
2022-10-15T13:24:31.779Z,20.22
2022-10-15T13:27:02.330Z,20.17
2022-10-15T13:29:31.618Z,20.74
2022-10-15T13:32:01.362Z,21.26
2022-10-15T13:34:34.256Z,21.58
2022-10-15T13:37:04.835Z,22.10
2022-10-15T13:39:37.090Z,22.03
2022-10-15T13:42:15.229Z,21.71
2022-10-15T13:44:44.214Z,21.39
2022-10-15T13:47:26.560Z,21.13
2022-10-15T13:50:14.474Z,20.87
2022-10-15T13:52:44.519Z,20.74
2022-10-15T13:55:19.151Z,20.67
2022-10-15T13:57:51.389Z,20.59
2022-10-15T14:00:26.696Z,20.74
2022-10-15T14:03:09.833Z,20.77
2022-10-15T14:05:38.246Z,20.71
2022-10-15T14:08:07.747Z,20.66
2022-10-15T14:10:36.814Z,20.62
2022-10-15T14:13:07.180Z,20.57
2022-10-15T14:15:53.384Z,20.54
2022-10-15T14:18:31.504Z,20.50
2022-10-15T14:21:00.261Z,20.58
2022-10-15T14:23:29.325Z,20.63
2022-10-15T14:25:59.877Z,20.58
2022-10-15T14:28:32.294Z,20.45
2022-10-15T14:31:02.293Z,20.46
2022-10-15T14:33:34.821Z,20.57
2022-10-15T14:36:09.940Z,21.31
2022-10-15T14:38:38.794Z,21.94
2022-10-15T14:41:23.329Z,22.40
2022-10-15T14:44:08.102Z,22.48
2022-10-15T14:46:41.819Z,22.65
2022-10-15T14:49:31.344Z,22.78
2022-10-15T14:52:04.800Z,22.85
2022-10-15T14:54:39.864Z,22.49
2022-10-15T14:57:19.883Z,22.28
2022-10-15T14:59:55.857Z,22.17
2022-10-15T15:02:28.152Z,22.37
2022-10-15T15:05:09.622Z,22.35
2022-10-15T15:07:38.562Z,22.64
2022-10-15T15:10:09.966Z,22.74
2022-10-15T15:12:40.554Z,22.68
2022-10-15T15:15:14.864Z,22.67
2022-10-15T15:17:44.081Z,22.80
2022-10-15T15:20:13.363Z,22.90
2022-10-15T15:22:43.556Z,23.06
2022-10-15T15:25:16.602Z,23.15
2022-10-15T15:27:46.193Z,23.21
2022-10-15T15:30:19.019Z,23.25
2022-10-15T15:32:48.935Z,23.24
2022-10-15T15:35:24.326Z,23.18
2022-10-15T15:37:53.754Z,23.14
2022-10-15T15:40:22.294Z,22.91
2022-10-15T15:42:51.336Z,22.65
2022-10-15T15:45:23.715Z,22.38
2022-10-15T15:47:52.645Z,22.17
2022-10-15T15:50:22.943Z,22.02
2022-10-15T15:52:51.580Z,21.87
2022-10-15T15:55:23.374Z,21.77
2022-10-15T15:57:52.148Z,21.69
2022-10-15T16:00:22.140Z,21.65
2022-10-15T16:02:54.051Z,21.53
2022-10-15T16:05:25.454Z,21.40
2022-10-15T16:07:54.507Z,21.28
2022-10-15T16:10:22.885Z,21.11
2022-10-15T16:12:51.491Z,20.88
2022-10-15T16:15:20.344Z,20.67
2022-10-15T16:17:50.106Z,20.50
2022-10-15T16:20:19.175Z,20.24
2022-10-15T16:22:50.744Z,20.06
2022-10-15T16:25:20.214Z,19.91
2022-10-15T16:27:51.682Z,19.88
2022-10-15T16:30:20.885Z,19.75
2022-10-15T16:32:51.330Z,19.67
2022-10-15T16:35:19.951Z,19.61
2022-10-15T16:37:48.410Z,19.52
2022-10-15T16:40:19.320Z,19.45
2022-10-15T16:42:47.760Z,19.39
2022-10-15T16:45:16.664Z,19.35
2022-10-15T16:47:45.410Z,19.27
2022-10-15T16:50:15.124Z,19.23
2022-10-15T16:52:43.898Z,19.14
2022-10-15T16:55:12.684Z,19.07
2022-10-15T16:57:42.282Z,19.02
2022-10-15T17:00:12.352Z,19.00
2022-10-15T17:02:40.722Z,18.94
2022-10-15T17:05:10.730Z,18.83
2022-10-15T17:07:40.957Z,18.67
2022-10-15T17:10:13.989Z,18.57
2022-10-15T17:12:43.349Z,18.51
2022-10-15T17:15:12.632Z,18.48
2022-10-15T17:17:41.808Z,18.47
2022-10-15T17:20:11.657Z,18.46
2022-10-15T17:22:41.370Z,18.47
2022-10-15T17:25:12.709Z,18.48
2022-10-15T17:27:41.996Z,18.46
2022-10-15T17:30:11.573Z,18.49
2022-10-15T17:32:41.590Z,18.48
2022-10-15T17:35:10.185Z,18.41
2022-10-15T17:37:41.606Z,18.38
2022-10-15T17:40:10.837Z,18.41
2022-10-15T17:42:43.079Z,18.42
2022-10-15T17:45:12.178Z,18.39
2022-10-15T17:47:41.343Z,18.40
2022-10-15T17:50:13.249Z,18.41
2022-10-15T17:52:45.002Z,18.48
2022-10-15T17:55:14.307Z,18.57
2022-10-15T17:57:42.690Z,18.84
2022-10-15T18:00:12.650Z,19.07
2022-10-15T18:02:41.487Z,18.99
2022-10-15T18:05:10.126Z,18.88
2022-10-15T18:07:38.953Z,18.76
2022-10-15T18:10:12.923Z,18.68
2022-10-15T18:12:41.308Z,18.58
2022-10-15T18:15:10.617Z,18.48
2022-10-15T18:17:39.076Z,18.38
2022-10-15T18:20:08.039Z,18.30
2022-10-15T18:22:36.853Z,18.32
2022-10-15T18:25:05.861Z,18.26
2022-10-15T18:27:36.618Z,18.25
2022-10-15T18:30:05.746Z,18.25
2022-10-15T18:35:08.514Z,18.21
2022-10-15T18:37:36.839Z,18.22
2022-10-15T18:40:06.251Z,18.24
2022-10-15T18:42:35.982Z,18.20
2022-10-15T18:45:06.860Z,18.15
2022-10-15T18:47:35.344Z,18.10
2022-10-15T18:50:06.071Z,18.12
2022-10-15T18:52:39.945Z,18.06
2022-10-15T18:55:09.702Z,18.06
2022-10-15T18:57:45.187Z,17.99
2022-10-15T19:00:15.154Z,17.84
2022-10-15T19:02:43.919Z,17.83
2022-10-15T19:05:12.416Z,17.84
2022-10-15T19:07:40.970Z,17.82
2022-10-15T19:10:10.199Z,17.83
2022-10-15T19:12:38.964Z,17.81
2022-10-15T19:15:09.999Z,17.81
2022-10-15T19:17:39.230Z,17.79
2022-10-15T19:20:08.955Z,17.75
2022-10-15T19:22:37.348Z,17.74
2022-10-15T19:25:07.130Z,17.72
2022-10-15T19:27:35.597Z,17.68
2022-10-15T19:30:08.544Z,17.64
2022-10-15T19:32:38.499Z,17.67
2022-10-15T19:35:07.471Z,17.60
2022-10-15T19:37:36.365Z,17.62
2022-10-15T19:40:07.295Z,17.60
2022-10-15T19:42:36.309Z,17.55
2022-10-15T19:45:05.122Z,17.46
2022-10-15T19:47:34.112Z,17.42
2022-10-15T19:50:04.122Z,17.35
2022-10-15T19:52:33.095Z,17.28
2022-10-15T19:55:02.821Z,17.26
2022-10-15T19:57:31.926Z,17.22
2022-10-15T20:00:00.314Z,17.18
2022-10-15T20:02:28.934Z,17.18
2022-10-15T20:04:57.429Z,17.18
2022-10-15T20:07:28.055Z,17.16
2022-10-15T20:09:56.524Z,17.09
2022-10-15T20:12:25.720Z,17.11
2022-10-15T20:14:55.336Z,17.11
2022-10-15T20:17:24.103Z,16.99
2022-10-15T20:19:52.604Z,17.08
2022-10-15T20:22:21.458Z,17.08
2022-10-15T20:24:51.783Z,17.08
2022-10-15T20:27:20.107Z,17.07
2022-10-15T20:29:49.354Z,17.05
2022-10-15T20:32:30.473Z,17.03
2022-10-15T20:35:03.204Z,17.01
2022-10-15T20:37:31.922Z,16.96
2022-10-15T20:40:02.152Z,16.92
2022-10-15T20:42:30.563Z,16.90
2022-10-15T20:44:59.255Z,16.87
2022-10-15T20:47:27.833Z,16.82
2022-10-15T20:49:56.952Z,16.76
2022-10-15T20:52:26.183Z,16.71
2022-10-15T20:54:55.787Z,16.70
2022-10-15T20:57:26.102Z,16.69
2022-10-15T20:59:54.578Z,16.71
2022-10-15T21:02:23.656Z,16.74
2022-10-15T21:04:53.349Z,16.74
2022-10-15T21:07:24.897Z,16.73
2022-10-15T21:09:53.303Z,16.72
2022-10-15T21:12:22.028Z,16.69
2022-10-15T21:14:52.395Z,16.71
2022-10-15T21:17:21.068Z,16.72
2022-10-15T21:19:52.671Z,16.72
2022-10-15T21:22:21.729Z,16.72
2022-10-15T21:24:51.000Z,16.75
2022-10-15T21:27:19.875Z,16.76
2022-10-15T21:29:49.446Z,16.76
2022-10-15T21:32:20.041Z,16.80
2022-10-15T21:34:48.402Z,16.81
2022-10-15T21:37:17.543Z,16.85
2022-10-15T21:39:46.220Z,16.85
2022-10-15T21:42:14.583Z,16.83
2022-10-15T21:44:43.663Z,16.84
2022-10-15T21:47:15.131Z,16.90
2022-10-15T21:49:45.820Z,16.93
2022-10-15T21:52:15.159Z,16.93
2022-10-15T21:54:43.981Z,16.92
2022-10-15T21:57:12.367Z,16.94
2022-10-15T21:59:40.726Z,16.94
2022-10-15T22:02:09.551Z,16.93
2022-10-15T22:04:38.047Z,16.95
2022-10-15T22:07:09.676Z,16.94
2022-10-15T22:09:38.638Z,16.91
2022-10-15T22:12:07.333Z,16.90
2022-10-15T22:14:36.171Z,16.88
2022-10-15T22:17:05.017Z,16.89
2022-10-15T22:19:33.357Z,16.90
2022-10-15T22:22:02.452Z,16.90
2022-10-15T22:24:32.739Z,16.85
2022-10-15T22:27:02.015Z,16.83
2022-10-15T22:29:34.441Z,16.84
2022-10-15T22:32:04.800Z,16.86
2022-10-15T22:34:33.435Z,16.85
2022-10-15T22:37:02.528Z,16.81
2022-10-15T22:39:32.363Z,16.80
2022-10-15T22:42:01.572Z,16.75
2022-10-15T22:44:30.360Z,16.71
2022-10-15T22:46:59.002Z,16.76
2022-10-15T22:49:28.258Z,16.81
2022-10-15T22:51:56.771Z,16.80
2022-10-15T22:54:25.435Z,16.83
2022-10-15T22:56:55.158Z,16.81
2022-10-15T22:59:24.457Z,16.73
2022-10-15T23:01:52.819Z,16.78
2022-10-15T23:04:21.855Z,16.81
2022-10-15T23:06:50.720Z,16.83
2022-10-15T23:09:19.955Z,16.79
2022-10-15T23:11:49.451Z,16.77
2022-10-15T23:14:19.664Z,16.75
2022-10-15T23:16:49.328Z,16.74
2022-10-15T23:19:20.251Z,16.73
2022-10-15T23:21:51.446Z,16.66
2022-10-15T23:24:22.278Z,16.65
2022-10-15T23:26:51.556Z,16.68
2022-10-15T23:29:23.682Z,16.70
2022-10-15T23:31:53.770Z,16.65
2022-10-15T23:34:24.804Z,16.63
2022-10-15T23:36:53.788Z,16.62
2022-10-15T23:39:25.129Z,16.59
2022-10-15T23:41:54.264Z,16.57
2022-10-15T23:44:27.279Z,16.54
2022-10-15T23:46:55.915Z,16.57
2022-10-15T23:49:24.741Z,16.50
2022-10-15T23:51:53.099Z,16.43
2022-10-15T23:54:22.840Z,16.45
2022-10-15T23:56:51.192Z,16.45
2022-10-15T23:59:21.745Z,16.45
